PWSweather.com
Personal Weather Stations
Station Observations
ISTOCKPO4
Cheadle HulmeGB SK8 6NZ

Cheadle HulmeGB SK8 6NZ

Lat: 53.363783, Lon: -2.1948438

Elevation: 261

Station Type: Davis VP2 with Daytime FARS

http://www.cheadlehulmeweather.co.uk

High Low Average
Temperature 53.8°F12.1°C 43.9°F6.6°C 47.5°F8.6°C
Dew Point 48.1°F8.9°C 40.2°F4.6°C 43.8°F6.6°C
Winds 11.0 mph 17.7 kmh 4.0 mph 6.4 kmh 7.0 mph ESE11.3 kmh ESE
Wind Gusts 26.0 mph41.8 kmh 10.0 mph16.1 kmh 16.0 mph25.7 kmh
Humidity 92% 77% 87%
Pressure 29.28 in991.5 mb 29.11 in985.8 mb -
Precipitation 0.05 in1.3 mm - -
Hour Temp Dew Point Humidity Winds Wind Gusts Pressure Precip Precip Rate Daily Precip Total
12:00 AM 47.3°F8.5°C 40.5°F4.7°C 77% 10.0 mph ESE16.1 kmh ESE 21.0 mph33.8 kmh 29.22 in989.5 mb 0.00 in0.0 mm 0.00 in0.0 mm 0.00 in0.0 mm
12:15 AM 47.1°F8.4°C 40.6°F4.8°C 78% 10.0 mph ESE16.1 kmh ESE 23.0 mph37.0 kmh 29.21 in989.2 mb 0.00 in0.0 mm 0.00 in0.0 mm 0.00 in0.0 mm
12:30 AM 46.8°F8.2°C 40.6°F4.8°C 79% 10.0 mph ESE16.1 kmh ESE 22.0 mph35.4 kmh 29.20 in988.8 mb 0.00 in0.0 mm 0.00 in0.0 mm 0.00 in0.0 mm
12:45 AM 46.8°F8.2°C 40.9°F4.9°C 80% 10.0 mph ESE16.1 kmh ESE 19.0 mph30.6 kmh 29.20 in988.8 mb 0.00 in0.0 mm 0.00 in0.0 mm 0.00 in0.0 mm
01:00 AM 46.8°F8.2°C 40.9°F4.9°C 80% 10.0 mph ESE16.1 kmh ESE 20.0 mph32.2 kmh 29.20 in988.8 mb 0.00 in0.0 mm 0.00 in0.0 mm 0.00 in0.0 mm
01:15 AM 46.8°F8.2°C 40.9°F4.9°C 80% 9.0 mph ESE14.5 kmh ESE 18.0 mph29.0 kmh 29.19 in988.5 mb 0.00 in0.0 mm 0.00 in0.0 mm 0.00 in0.0 mm
01:30 AM 46.8°F8.2°C 40.9°F4.9°C 80% 11.0 mph SE17.7 kmh SE 21.0 mph33.8 kmh 29.18 in988.1 mb 0.00 in0.0 mm 0.00 in0.0 mm 0.00 in0.0 mm
01:45 AM 46.6°F8.1°C 40.7°F4.8°C 80% 9.0 mph SE14.5 kmh SE 19.0 mph30.6 kmh 29.18 in988.1 mb 0.00 in0.0 mm 0.00 in0.0 mm 0.00 in0.0 mm
02:00 AM 46.4°F8.0°C 40.6°F4.8°C 80% 10.0 mph ESE16.1 kmh ESE 21.0 mph33.8 kmh 29.16 in987.5 mb 0.00 in0.0 mm 0.00 in0.0 mm 0.00 in0.0 mm
02:15 AM 46.2°F7.9°C 40.4°F4.7°C 80% 10.0 mph E16.1 kmh E 20.0 mph32.2 kmh 29.16 in987.5 mb 0.00 in0.0 mm 0.00 in0.0 mm 0.00 in0.0 mm
02:30 AM 46.0°F7.8°C 40.2°F4.6°C 80% 9.0 mph ESE14.5 kmh ESE 16.0 mph25.7 kmh 29.15 in987.1 mb 0.00 in0.0 mm 0.00 in0.0 mm 0.00 in0.0 mm
02:45 AM 45.9°F7.7°C 40.4°F4.7°C 81% 9.0 mph ESE14.5 kmh ESE 20.0 mph32.2 kmh 29.14 in986.8 mb 0.00 in0.0 mm 0.00 in0.0 mm 0.00 in0.0 mm
03:00 AM 45.7°F7.6°C 40.2°F4.6°C 82% 10.0 mph ESE16.1 kmh ESE 26.0 mph41.8 kmh 29.13 in986.5 mb 0.00 in0.0 mm 0.00 in0.0 mm 0.00 in0.0 mm
03:15 AM 45.5°F7.5°C 40.6°F4.8°C 83% 9.0 mph ESE14.5 kmh ESE 20.0 mph32.2 kmh 29.13 in986.5 mb 0.00 in0.0 mm 0.00 in0.0 mm 0.00 in0.0 mm
03:30 AM 45.1°F7.3°C 40.6°F4.8°C 84% 9.0 mph ESE14.5 kmh ESE 19.0 mph30.6 kmh 29.13 in986.5 mb 0.00 in0.0 mm 0.00 in0.0 mm 0.00 in0.0 mm
03:45 AM 44.8°F7.1°C 40.5°F4.7°C 85% 9.0 mph E14.5 kmh E 18.0 mph29.0 kmh 29.12 in986.1 mb 0.00 in0.0 mm 0.00 in0.0 mm 0.00 in0.0 mm
04:00 AM 44.8°F7.1°C 40.8°F4.9°C 86% 8.0 mph E12.9 kmh E 19.0 mph30.6 kmh 29.12 in986.1 mb 0.00 in0.0 mm 0.00 in0.0 mm 0.00 in0.0 mm
04:15 AM 44.4°F6.9°C 40.5°F4.7°C 86% 9.0 mph E14.5 kmh E 19.0 mph30.6 kmh 29.11 in985.8 mb 0.00 in0.0 mm 0.00 in0.0 mm 0.00 in0.0 mm
04:30 AM 44.2°F6.8°C 40.6°F4.8°C 87% 9.0 mph E14.5 kmh E 20.0 mph32.2 kmh 29.11 in985.8 mb 0.00 in0.0 mm 0.00 in0.0 mm 0.00 in0.0 mm
04:45 AM 44.2°F6.8°C 40.9°F4.9°C 88% 8.0 mph ESE12.9 kmh ESE 20.0 mph32.2 kmh 29.11 in985.8 mb 0.00 in0.0 mm 0.00 in0.0 mm 0.00 in0.0 mm
05:00 AM 44.2°F6.8°C 40.9°F4.9°C 88% 8.0 mph ESE12.9 kmh ESE 20.0 mph32.2 kmh 29.12 in986.1 mb 0.00 in0.0 mm 0.00 in0.0 mm 0.00 in0.0 mm
05:15 AM 44.2°F6.8°C 40.9°F4.9°C 88% 8.0 mph ESE12.9 kmh ESE 17.0 mph27.4 kmh 29.12 in986.1 mb 0.01 in0.3 mm 0.04 in1.0 mm 0.01 in0.3 mm
05:30 AM 44.1°F6.7°C 40.7°F4.8°C 88% 5.0 mph E8.0 kmh E 13.0 mph20.9 kmh 29.12 in986.1 mb 0.02 in0.5 mm 0.04 in1.0 mm 0.02 in0.5 mm
05:45 AM 44.1°F6.7°C 41.0°F5.0°C 89% 5.0 mph E8.0 kmh E 18.0 mph29.0 kmh 29.11 in985.8 mb 0.02 in0.5 mm 0.00 in0.0 mm 0.02 in0.5 mm
06:00 AM 44.1°F6.7°C 41.0°F5.0°C 89% 7.0 mph E11.3 kmh E 16.0 mph25.7 kmh 29.11 in985.8 mb 0.02 in0.5 mm 0.00 in0.0 mm 0.02 in0.5 mm
06:15 AM 44.1°F6.7°C 41.0°F5.0°C 89% 7.0 mph E11.3 kmh E 17.0 mph27.4 kmh 29.11 in985.8 mb 0.01 in0.3 mm 0.00 in0.0 mm 0.02 in0.5 mm
06:30 AM 44.1°F6.7°C 41.3°F5.2°C 90% 6.0 mph E9.7 kmh E 14.0 mph22.5 kmh 29.11 in985.8 mb 0.01 in0.3 mm 0.00 in0.0 mm 0.03 in0.8 mm
06:45 AM 43.9°F6.6°C 41.1°F5.1°C 90% 7.0 mph E11.3 kmh E 13.0 mph20.9 kmh 29.11 in985.8 mb 0.01 in0.3 mm 0.00 in0.0 mm 0.03 in0.8 mm
07:00 AM 43.9°F6.6°C 41.1°F5.1°C 90% 8.0 mph E12.9 kmh E 15.0 mph24.1 kmh 29.11 in985.8 mb 0.01 in0.3 mm 0.00 in0.0 mm 0.03 in0.8 mm
07:15 AM 44.1°F6.7°C 41.3°F5.2°C 90% 7.0 mph E11.3 kmh E 15.0 mph24.1 kmh 29.11 in985.8 mb 0.01 in0.3 mm 0.00 in0.0 mm 0.03 in0.8 mm
07:30 AM 44.1°F6.7°C 41.3°F5.2°C 90% 8.0 mph E12.9 kmh E 17.0 mph27.4 kmh 29.11 in985.8 mb 0.00 in0.0 mm 0.00 in0.0 mm 0.03 in0.8 mm
07:45 AM 44.2°F6.8°C 41.5°F5.3°C 90% 9.0 mph ESE14.5 kmh ESE 16.0 mph25.7 kmh 29.11 in985.8 mb 0.01 in0.3 mm 0.04 in1.0 mm 0.04 in1.0 mm
08:00 AM 44.2°F6.8°C 41.5°F5.3°C 90% 7.0 mph ESE11.3 kmh ESE 17.0 mph27.4 kmh 29.12 in986.1 mb 0.01 in0.3 mm 0.00 in0.0 mm 0.04 in1.0 mm
08:15 AM 44.4°F6.9°C 42.0°F5.6°C 91% 7.0 mph ESE11.3 kmh ESE 19.0 mph30.6 kmh 29.12 in986.1 mb 0.01 in0.3 mm 0.00 in0.0 mm 0.04 in1.0 mm
08:30 AM 44.4°F6.9°C 42.0°F5.6°C 91% 7.0 mph ESE11.3 kmh ESE 17.0 mph27.4 kmh 29.12 in986.1 mb 0.02 in0.5 mm 0.04 in1.0 mm 0.05 in1.3 mm
08:45 AM 44.8°F7.1°C 42.3°F5.7°C 91% 7.0 mph ESE11.3 kmh ESE 15.0 mph24.1 kmh 29.12 in986.1 mb 0.01 in0.3 mm 0.00 in0.0 mm 0.05 in1.3 mm
09:00 AM 45.1°F7.3°C 42.7°F5.9°C 91% 7.0 mph ESE11.3 kmh ESE 18.0 mph29.0 kmh 29.12 in986.1 mb 0.01 in0.3 mm 0.00 in0.0 mm 0.05 in1.3 mm
09:15 AM 45.5°F7.5°C 42.7°F5.9°C 90% 7.0 mph ESE11.3 kmh ESE 14.0 mph22.5 kmh 29.13 in986.5 mb 0.01 in0.3 mm 0.00 in0.0 mm 0.05 in1.3 mm
09:30 AM 45.7°F7.6°C 42.9°F6.1°C 90% 7.0 mph ESE11.3 kmh ESE 18.0 mph29.0 kmh 29.14 in986.8 mb 0.00 in0.0 mm 0.00 in0.0 mm 0.05 in1.3 mm
09:45 AM 45.7°F7.6°C 42.9°F6.1°C 90% 8.0 mph ESE12.9 kmh ESE 14.0 mph22.5 kmh 29.14 in986.8 mb 0.00 in0.0 mm 0.00 in0.0 mm 0.05 in1.3 mm
10:00 AM 45.9°F7.7°C 43.1°F6.2°C 90% 7.0 mph SE11.3 kmh SE 14.0 mph22.5 kmh 29.14 in986.8 mb 0.00 in0.0 mm 0.00 in0.0 mm 0.05 in1.3 mm
10:15 AM 46.4°F8.0°C 43.9°F6.6°C 91% 7.0 mph ESE11.3 kmh ESE 15.0 mph24.1 kmh 29.14 in986.8 mb 0.00 in0.0 mm 0.00 in0.0 mm 0.05 in1.3 mm
10:30 AM 47.1°F8.4°C 44.3°F6.8°C 90% 7.0 mph SE11.3 kmh SE 14.0 mph22.5 kmh 29.15 in987.1 mb 0.00 in0.0 mm 0.00 in0.0 mm 0.05 in1.3 mm
10:45 AM 47.5°F8.6°C 44.7°F7.1°C 90% 6.0 mph SE9.7 kmh SE 11.0 mph17.7 kmh 29.15 in987.1 mb 0.00 in0.0 mm 0.00 in0.0 mm 0.05 in1.3 mm
11:00 AM 47.7°F8.7°C 44.6°F7.0°C 89% 7.0 mph SE11.3 kmh SE 13.0 mph20.9 kmh 29.15 in987.1 mb 0.00 in0.0 mm 0.00 in0.0 mm 0.05 in1.3 mm
11:15 AM 48.2°F9.0°C 45.1°F7.3°C 89% 7.0 mph SE11.3 kmh SE 13.0 mph20.9 kmh 29.16 in987.5 mb 0.00 in0.0 mm 0.00 in0.0 mm 0.05 in1.3 mm
11:30 AM 48.7°F9.3°C 45.6°F7.6°C 89% 6.0 mph SE9.7 kmh SE 12.0 mph19.3 kmh 29.16 in987.5 mb 0.00 in0.0 mm 0.00 in0.0 mm 0.05 in1.3 mm
11:45 AM 49.5°F9.7°C 46.1°F7.8°C 88% 7.0 mph ESE11.3 kmh ESE 14.0 mph22.5 kmh 29.17 in987.8 mb 0.00 in0.0 mm 0.00 in0.0 mm 0.05 in1.3 mm
12:00 PM 49.5°F9.7°C 46.1°F7.8°C 88% 4.0 mph ESE6.4 kmh ESE 11.0 mph17.7 kmh 29.17 in987.8 mb 0.00 in0.0 mm 0.00 in0.0 mm 0.05 in1.3 mm
12:15 PM 49.3°F9.6°C 45.9°F7.7°C 88% 5.0 mph SE8.0 kmh SE 11.0 mph17.7 kmh 29.17 in987.8 mb 0.00 in0.0 mm 0.00 in0.0 mm 0.05 in1.3 mm
12:30 PM 49.8°F9.9°C 46.7°F8.2°C 89% 4.0 mph ESE6.4 kmh ESE 13.0 mph20.9 kmh 29.17 in987.8 mb 0.00 in0.0 mm 0.00 in0.0 mm 0.05 in1.3 mm
12:45 PM 50.7°F10.4°C 46.7°F8.2°C 86% 8.0 mph SE12.9 kmh SE 15.0 mph24.1 kmh 29.17 in987.8 mb 0.00 in0.0 mm 0.00 in0.0 mm 0.05 in1.3 mm
01:00 PM 51.4°F10.8°C 47.1°F8.4°C 85% 8.0 mph SE12.9 kmh SE 18.0 mph29.0 kmh 29.17 in987.8 mb 0.00 in0.0 mm 0.00 in0.0 mm 0.05 in1.3 mm
01:15 PM 51.4°F10.8°C 46.8°F8.2°C 84% 10.0 mph SE16.1 kmh SE 17.0 mph27.4 kmh 29.18 in988.1 mb 0.00 in0.0 mm 0.00 in0.0 mm 0.05 in1.3 mm
01:30 PM 52.0°F11.1°C 47.3°F8.5°C 84% 6.0 mph E9.7 kmh E 15.0 mph24.1 kmh 29.18 in988.1 mb 0.00 in0.0 mm 0.00 in0.0 mm 0.05 in1.3 mm
01:45 PM 51.4°F10.8°C 46.8°F8.2°C 84% 6.0 mph E9.7 kmh E 13.0 mph20.9 kmh 29.18 in988.1 mb 0.00 in0.0 mm 0.00 in0.0 mm 0.05 in1.3 mm
02:00 PM 51.4°F10.8°C 47.4°F8.6°C 86% 6.0 mph E9.7 kmh E 12.0 mph19.3 kmh 29.18 in988.1 mb 0.00 in0.0 mm 0.00 in0.0 mm 0.05 in1.3 mm
02:15 PM 51.1°F10.6°C 47.0°F8.3°C 86% 7.0 mph E11.3 kmh E 13.0 mph20.9 kmh 29.18 in988.1 mb 0.00 in0.0 mm 0.00 in0.0 mm 0.05 in1.3 mm
02:30 PM 50.7°F10.4°C 47.3°F8.5°C 88% 6.0 mph E9.7 kmh E 12.0 mph19.3 kmh 29.18 in988.1 mb 0.00 in0.0 mm 0.00 in0.0 mm 0.05 in1.3 mm
02:45 PM 52.2°F11.2°C 47.8°F8.8°C 85% 6.0 mph E9.7 kmh E 13.0 mph20.9 kmh 29.18 in988.1 mb 0.00 in0.0 mm 0.00 in0.0 mm 0.05 in1.3 mm
03:00 PM 52.5°F11.4°C 47.8°F8.8°C 84% 5.0 mph ESE8.0 kmh ESE 11.0 mph17.7 kmh 29.18 in988.1 mb 0.00 in0.0 mm 0.00 in0.0 mm 0.05 in1.3 mm
03:15 PM 53.8°F12.1°C 48.1°F8.9°C 81% 9.0 mph SE14.5 kmh SE 16.0 mph25.7 kmh 29.18 in988.1 mb 0.00 in0.0 mm 0.00 in0.0 mm 0.05 in1.3 mm
03:30 PM 52.5°F11.4°C 47.2°F8.4°C 82% 7.0 mph SE11.3 kmh SE 14.0 mph22.5 kmh 29.18 in988.1 mb 0.00 in0.0 mm 0.00 in0.0 mm 0.05 in1.3 mm
03:45 PM 52.5°F11.4°C 47.2°F8.4°C 82% 8.0 mph E12.9 kmh E 21.0 mph33.8 kmh 29.18 in988.1 mb 0.00 in0.0 mm 0.00 in0.0 mm 0.05 in1.3 mm
04:00 PM 52.2°F11.2°C 47.2°F8.4°C 83% 8.0 mph E12.9 kmh E 16.0 mph25.7 kmh 29.18 in988.1 mb 0.00 in0.0 mm 0.00 in0.0 mm 0.05 in1.3 mm
04:15 PM 50.7°F10.4°C 46.4°F8.0°C 85% 10.0 mph E16.1 kmh E 19.0 mph30.6 kmh 29.19 in988.5 mb 0.00 in0.0 mm 0.00 in0.0 mm 0.05 in1.3 mm
04:30 PM 50.4°F10.2°C 46.3°F7.9°C 86% 7.0 mph E11.3 kmh E 16.0 mph25.7 kmh 29.19 in988.5 mb 0.00 in0.0 mm 0.00 in0.0 mm 0.05 in1.3 mm
04:45 PM 50.2°F10.1°C 46.2°F7.9°C 86% 8.0 mph E12.9 kmh E 16.0 mph25.7 kmh 29.19 in988.5 mb 0.00 in0.0 mm 0.00 in0.0 mm 0.05 in1.3 mm
05:00 PM 49.8°F9.9°C 46.1°F7.8°C 87% 8.0 mph ESE12.9 kmh ESE 16.0 mph25.7 kmh 29.20 in988.8 mb 0.00 in0.0 mm 0.00 in0.0 mm 0.05 in1.3 mm
05:15 PM 49.6°F9.8°C 45.9°F7.7°C 87% 5.0 mph ESE8.0 kmh ESE 13.0 mph20.9 kmh 29.20 in988.8 mb 0.00 in0.0 mm 0.00 in0.0 mm 0.05 in1.3 mm
05:30 PM 49.6°F9.8°C 45.9°F7.7°C 87% 5.0 mph E8.0 kmh E 13.0 mph20.9 kmh 29.21 in989.2 mb 0.00 in0.0 mm 0.00 in0.0 mm 0.05 in1.3 mm
05:45 PM 49.6°F9.8°C 45.9°F7.7°C 87% 5.0 mph E8.0 kmh E 10.0 mph16.1 kmh 29.21 in989.2 mb 0.00 in0.0 mm 0.00 in0.0 mm 0.05 in1.3 mm
06:00 PM 49.6°F9.8°C 45.9°F7.7°C 87% 5.0 mph E8.0 kmh E 14.0 mph22.5 kmh 29.21 in989.2 mb 0.00 in0.0 mm 0.00 in0.0 mm 0.05 in1.3 mm
06:15 PM 49.3°F9.6°C 45.6°F7.6°C 87% 7.0 mph E11.3 kmh E 15.0 mph24.1 kmh 29.22 in989.5 mb 0.00 in0.0 mm 0.00 in0.0 mm 0.05 in1.3 mm
06:30 PM 49.1°F9.5°C 45.4°F7.4°C 87% 5.0 mph E8.0 kmh E 10.0 mph16.1 kmh 29.23 in989.8 mb 0.00 in0.0 mm 0.00 in0.0 mm 0.05 in1.3 mm
06:45 PM 48.9°F9.4°C 45.5°F7.5°C 88% 6.0 mph E9.7 kmh E 14.0 mph22.5 kmh 29.23 in989.8 mb 0.00 in0.0 mm 0.00 in0.0 mm 0.05 in1.3 mm
07:00 PM 48.9°F9.4°C 45.5°F7.5°C 88% 6.0 mph E9.7 kmh E 11.0 mph17.7 kmh 29.23 in989.8 mb 0.00 in0.0 mm 0.00 in0.0 mm 0.05 in1.3 mm
07:15 PM 48.9°F9.4°C 45.8°F7.7°C 89% 8.0 mph E12.9 kmh E 16.0 mph25.7 kmh 29.24 in990.2 mb 0.00 in0.0 mm 0.00 in0.0 mm 0.05 in1.3 mm
07:30 PM 48.4°F9.1°C 45.6°F7.6°C 90% 8.0 mph E12.9 kmh E 13.0 mph20.9 kmh 29.25 in990.5 mb 0.00 in0.0 mm 0.00 in0.0 mm 0.05 in1.3 mm
07:45 PM 48.0°F8.9°C 45.2°F7.3°C 90% 7.0 mph E11.3 kmh E 14.0 mph22.5 kmh 29.25 in990.5 mb 0.00 in0.0 mm 0.00 in0.0 mm 0.05 in1.3 mm
08:00 PM 48.0°F8.9°C 45.2°F7.3°C 90% 6.0 mph E9.7 kmh E 12.0 mph19.3 kmh 29.25 in990.5 mb 0.00 in0.0 mm 0.00 in0.0 mm 0.05 in1.3 mm
08:15 PM 47.8°F8.8°C 45.0°F7.2°C 90% 7.0 mph E11.3 kmh E 14.0 mph22.5 kmh 29.25 in990.5 mb 0.00 in0.0 mm 0.00 in0.0 mm 0.05 in1.3 mm
08:30 PM 47.8°F8.8°C 45.0°F7.2°C 90% 7.0 mph E11.3 kmh E 13.0 mph20.9 kmh 29.25 in990.5 mb 0.00 in0.0 mm 0.00 in0.0 mm 0.05 in1.3 mm
08:45 PM 48.0°F8.9°C 45.5°F7.5°C 91% 6.0 mph E9.7 kmh E 15.0 mph24.1 kmh 29.25 in990.5 mb 0.00 in0.0 mm 0.00 in0.0 mm 0.05 in1.3 mm
09:00 PM 47.8°F8.8°C 45.3°F7.4°C 91% 6.0 mph E9.7 kmh E 14.0 mph22.5 kmh 29.25 in990.5 mb 0.00 in0.0 mm 0.00 in0.0 mm 0.05 in1.3 mm
09:15 PM 47.8°F8.8°C 45.3°F7.4°C 91% 6.0 mph E9.7 kmh E 11.0 mph17.7 kmh 29.26 in990.9 mb 0.00 in0.0 mm 0.00 in0.0 mm 0.05 in1.3 mm
09:30 PM 47.8°F8.8°C 45.3°F7.4°C 91% 5.0 mph E8.0 kmh E 12.0 mph19.3 kmh 29.26 in990.9 mb 0.00 in0.0 mm 0.00 in0.0 mm 0.05 in1.3 mm
09:45 PM 47.7°F8.7°C 45.2°F7.3°C 91% 6.0 mph E9.7 kmh E 14.0 mph22.5 kmh 29.26 in990.9 mb 0.00 in0.0 mm 0.00 in0.0 mm 0.05 in1.3 mm
10:00 PM 47.7°F8.7°C 45.2°F7.3°C 91% 6.0 mph E9.7 kmh E 13.0 mph20.9 kmh 29.26 in990.9 mb 0.00 in0.0 mm 0.00 in0.0 mm 0.05 in1.3 mm
10:15 PM 47.5°F8.6°C 45.0°F7.2°C 91% 6.0 mph ESE9.7 kmh ESE 14.0 mph22.5 kmh 29.26 in990.9 mb 0.00 in0.0 mm 0.00 in0.0 mm 0.05 in1.3 mm
10:30 PM 47.3°F8.5°C 44.8°F7.1°C 91% 6.0 mph SE9.7 kmh SE 12.0 mph19.3 kmh 29.27 in991.2 mb 0.00 in0.0 mm 0.00 in0.0 mm 0.05 in1.3 mm
10:45 PM 47.1°F8.4°C 44.6°F7.0°C 91% 6.0 mph E9.7 kmh E 12.0 mph19.3 kmh 29.27 in991.2 mb 0.00 in0.0 mm 0.00 in0.0 mm 0.05 in1.3 mm
11:00 PM 46.9°F8.3°C 44.7°F7.1°C 92% 6.0 mph E9.7 kmh E 13.0 mph20.9 kmh 29.28 in991.5 mb 0.00 in0.0 mm 0.00 in0.0 mm 0.05 in1.3 mm
11:15 PM 46.8°F8.2°C 44.6°F7.0°C 92% 6.0 mph E9.7 kmh E 13.0 mph20.9 kmh 29.27 in991.2 mb 0.00 in0.0 mm 0.00 in0.0 mm 0.05 in1.3 mm
11:30 PM 46.4°F8.0°C 44.2°F6.8°C 92% 9.0 mph E14.5 kmh E 18.0 mph29.0 kmh 29.27 in991.2 mb 0.00 in0.0 mm 0.00 in0.0 mm 0.05 in1.3 mm
11:45 PM 46.2°F7.9°C 44.0°F6.7°C 92% 9.0 mph E14.5 kmh E 19.0 mph30.6 kmh 29.27 in991.2 mb 0.00 in0.0 mm 0.00 in0.0 mm 0.05 in1.3 mm